Time;durP1;ratioP1;P1;durP2;ratioP2;P2;SDS_P1;SDS_P2;PMS_P1;PMS_P2;Temp;Humidity;BMP_temperature;BMP_pressure;BME280_temperature;BME280_humidity;BME280_pressure;Samples;Min_cycle;Max_cycle;Signal;HPM_P1;HPM_P2
2022/10/30 00:01:14;;;;;;;18.08;7.13;;;;;;;16.91;89.74;101565.72;6097225;23;20077;-51
2022/10/30 00:03:42;;;;;;;21.02;6.80;;;;;;;16.90;89.45;101566.81;6097062;23;20447;-52
2022/10/30 00:06:10;;;;;;;15.25;6.53;;;;;;;16.87;89.18;101564.66;6095756;23;20073;-52
2022/10/30 00:08:37;;;;;;;20.92;6.82;;;;;;;16.87;89.72;101572.13;6097535;23;20022;-49
2022/10/30 00:11:09;;;;;;;19.42;6.80;;;;;;;16.85;89.81;101569.66;6097111;23;20026;-49
2022/10/30 00:13:37;;;;;;;19.05;7.18;;;;;;;16.85;89.71;101563.31;6072064;23;20444;-51
2022/10/30 00:16:06;;;;;;;18.77;7.53;;;;;;;16.82;89.69;101568.28;6047955;23;20022;-52
2022/10/30 00:18:35;;;;;;;19.33;6.60;;;;;;;16.80;89.67;101572.44;6097439;23;20055;-52
2022/10/30 00:21:12;;;;;;;17.70;7.10;;;;;;;16.77;90.12;101564.75;6094709;23;20015;-50
2022/10/30 00:23:48;;;;;;;15.25;6.43;;;;;;;16.75;90.05;101572.47;6097390;23;20030;-51
2022/10/30 00:26:16;;;;;;;19.50;7.10;;;;;;;16.75;90.44;101566.97;6096007;23;20019;-51
2022/10/30 00:28:48;;;;;;;20.42;6.50;;;;;;;16.74;90.76;101577.16;6095954;23;20054;-53
2022/10/30 00:31:15;;;;;;;16.38;6.60;;;;;;;16.75;90.59;101569.72;6071725;23;20027;-52
2022/10/30 00:33:43;;;;;;;23.05;6.88;;;;;;;16.74;90.11;101577.16;6097583;23;20029;-51
2022/10/30 00:36:11;;;;;;;22.70;7.45;;;;;;;16.72;90.33;101579.38;6072072;23;20018;-50
2022/10/30 00:38:38;;;;;;;20.30;7.20;;;;;;;16.69;90.11;101574.47;6097664;23;20442;-51
2022/10/30 00:41:12;;;;;;;17.60;6.85;;;;;;;16.67;90.72;101562.09;6095565;23;20030;-52
2022/10/30 00:43:40;;;;;;;18.17;7.07;;;;;;;16.68;90.88;101566.50;6072379;23;20022;-52
2022/10/30 00:46:29;;;;;;;14.07;6.65;;;;;;;16.68;90.70;101564.56;6072101;23;20018;-53
2022/10/30 00:49:09;;;;;;;18.52;7.00;;;;;;;16.66;90.63;101561.28;6096107;23;20041;-51
2022/10/30 00:51:40;;;;;;;18.52;7.03;;;;;;;16.64;90.58;101562.69;6096777;23;20041;-52
2022/10/30 00:54:09;;;;;;;23.95;7.22;;;;;;;16.59;90.59;101558.84;6097120;23;20026;-55
2022/10/30 00:56:37;;;;;;;17.80;7.00;;;;;;;16.57;90.87;101560.25;6071990;23;20088;-55
2022/10/30 00:59:08;;;;;;;16.67;6.50;;;;;;;16.55;91.08;101557.81;6095034;23;20077;-55
2022/10/30 01:01:40;;;;;;;16.40;6.90;;;;;;;16.54;91.20;101556.16;6096114;23;20037;-53
2022/10/30 01:04:08;;;;;;;24.17;7.18;;;;;;;16.51;91.54;101556.75;6072208;23;20022;-55
2022/10/30 01:06:39;;;;;;;16.92;6.75;;;;;;;16.50;91.02;101559.78;6071584;23;20028;-51
2022/10/30 01:09:06;;;;;;;25.00;7.15;;;;;;;16.48;91.70;101560.09;6096727;23;20402;-54
2022/10/30 01:11:34;;;;;;;16.80;6.72;;;;;;;16.47;91.43;101560.38;6071339;23;20018;-53
2022/10/30 01:14:06;;;;;;;18.33;6.90;;;;;;;16.46;91.74;101562.31;6071702;23;20023;-54
2022/10/30 01:16:43;;;;;;;19.58;6.95;;;;;;;16.44;91.81;101559.03;6071895;23;20019;-52
2022/10/30 01:19:21;;;;;;;17.17;6.50;;;;;;;16.47;92.25;101560.38;6095054;23;20029;-50
2022/10/30 01:22:14;;;;;;;16.45;6.93;;;;;;;16.45;91.67;101555.19;6071082;23;20022;-51
2022/10/30 01:24:52;;;;;;;16.23;6.97;;;;;;;16.43;91.49;101560.16;6095243;23;20026;-50
2022/10/30 01:27:47;;;;;;;17.38;7.15;;;;;;;16.42;92.10;101564.00;6071853;23;20018;-55
2022/10/30 01:30:51;;;;;;;17.03;7.33;;;;;;;16.40;92.35;101572.53;6096540;23;20354;-49
2022/10/30 01:33:48;;;;;;;18.70;7.15;;;;;;;16.39;91.60;101575.56;6095336;23;20336;-52
2022/10/30 01:36:18;;;;;;;16.80;6.60;;;;;;;16.37;91.86;101577.78;6071852;23;20060;-56
2022/10/30 01:39:00;;;;;;;18.38;6.68;;;;;;;16.34;92.00;101572.88;6072939;23;20355;-51
2022/10/30 01:41:28;;;;;;;21.13;6.25;;;;;;;16.31;92.45;101566.03;6072934;23;20451;-51
2022/10/30 01:44:02;;;;;;;14.68;5.90;;;;;;;16.33;92.37;101568.47;6074015;23;20022;-51
2022/10/30 01:46:43;;;;;;;14.93;6.63;;;;;;;16.33;92.57;101569.31;6099230;23;20019;-52
2022/10/30 01:49:59;;;;;;;18.42;6.57;;;;;;;16.32;92.15;101575.09;6099723;23;20026;-51
2022/10/30 01:52:41;;;;;;;17.73;6.80;;;;;;;16.28;92.48;101579.50;6024653;23;20082;-50
2022/10/30 01:55:15;;;;;;;17.48;6.72;;;;;;;16.24;92.75;101572.97;6097095;23;20018;-51
2022/10/30 01:57:54;;;;;;;22.00;6.63;;;;;;;16.22;92.69;101575.19;6097508;23;20010;-49
2022/10/30 02:00:22;;;;;;;16.58;6.30;;;;;;;16.22;92.91;101569.69;6073456;23;20034;-52
2022/10/30 02:02:51;;;;;;;16.50;6.65;;;;;;;16.19;92.86;101571.88;6072374;23;20093;-53
2022/10/30 02:05:39;;;;;;;16.95;7.40;;;;;;;16.17;93.35;101573.28;6096974;23;20026;-52
2022/10/30 02:08:07;;;;;;;16.65;6.65;;;;;;;16.19;93.14;101574.66;6098918;23;20026;-48
2022/10/30 02:10:41;;;;;;;19.35;6.80;;;;;;;16.21;92.87;101573.53;6097525;23;20022;-50
2022/10/30 02:13:10;;;;;;;15.32;6.68;;;;;;;16.18;93.16;101578.47;6072737;23;20022;-51
2022/10/30 02:15:38;;;;;;;15.68;6.65;;;;;;;16.16;93.12;101583.47;6097210;23;20026;-51
2022/10/30 02:18:06;;;;;;;16.73;6.53;;;;;;;16.12;92.93;101584.34;6072961;23;20053;-51
2022/10/30 02:20:34;;;;;;;17.58;7.00;;;;;;;16.09;93.42;101593.97;6098671;23;20026;-50
2022/10/30 02:23:03;;;;;;;15.85;6.88;;;;;;;16.06;93.42;101591.78;6072270;23;20348;-51
2022/10/30 02:25:33;;;;;;;15.93;6.78;;;;;;;16.05;93.91;101590.16;6049613;23;20029;-51
2022/10/30 02:28:00;;;;;;;13.73;6.22;;;;;;;16.05;94.09;101584.66;6097212;23;20022;-51
2022/10/30 02:30:30;;;;;;;15.27;7.03;;;;;;;16.05;94.21;101581.91;6072637;23;20347;-50
2022/10/30 02:33:00;;;;;;;18.63;6.95;;;;;;;16.01;93.87;101580.81;6096725;23;20018;-51
2022/10/30 02:35:29;;;;;;;14.05;6.90;;;;;;;15.94;94.01;101586.63;6072244;23;20022;-51
2022/10/30 02:37:57;;;;;;;16.65;6.88;;;;;;;15.91;94.71;101587.22;6072530;23;20022;-50
2022/10/30 02:40:26;;;;;;;21.45;6.80;;;;;;;15.93;94.98;101585.00;6097094;23;20052;-52
2022/10/30 02:42:56;;;;;;;14.35;6.40;;;;;;;15.96;94.69;101583.63;6097099;23;20095;-52
2022/10/30 02:45:23;;;;;;;22.75;7.97;;;;;;;15.98;94.73;101595.16;6071798;23;20065;-50
2022/10/30 02:47:51;;;;;;;15.00;7.57;;;;;;;16.00;94.77;101590.19;6098532;23;20026;-51
2022/10/30 02:50:19;;;;;;;20.60;7.15;;;;;;;15.99;94.10;101588.53;6097236;23;20014;-51
2022/10/30 02:52:46;;;;;;;18.50;7.18;;;;;;;15.94;94.44;101583.88;6097529;23;20101;-52
2022/10/30 02:55:14;;;;;;;21.05;7.07;;;;;;;15.91;94.97;101595.47;6098683;23;20469;-52
2022/10/30 02:57:42;;;;;;;16.20;6.88;;;;;;;15.91;94.94;101600.97;6098604;23;20049;-53
2022/10/30 03:00:10;;;;;;;17.48;7.30;;;;;;;15.92;94.99;101599.88;6099084;23;20014;-55
2022/10/30 03:02:38;;;;;;;16.42;7.28;;;;;;;15.94;94.86;101591.31;6099775;23;20316;-56
2022/10/30 03:05:06;;;;;;;15.65;6.97;;;;;;;15.94;94.62;101591.31;6076909;23;20051;-53
2022/10/30 03:07:33;;;;;;;15.13;7.25;;;;;;;15.93;94.79;101595.19;6101259;23;20037;-56
2022/10/30 03:10:01;;;;;;;19.58;7.70;;;;;;;15.91;94.90;101591.91;6101364;23;20026;-54
2022/10/30 03:12:29;;;;;;;18.88;7.13;;;;;;;15.89;94.73;101583.13;6098705;23;20347;-51
2022/10/30 03:14:57;;;;;;;19.63;7.50;;;;;;;15.87;95.04;101586.13;6098397;23;20469;-49
2022/10/30 03:17:26;;;;;;;20.15;7.07;;;;;;;15.88;94.75;101592.47;6096416;23;20022;-50
2022/10/30 03:19:54;;;;;;;16.40;6.90;;;;;;;15.83;94.37;101585.09;6096589;23;20018;-53
2022/10/30 03:22:21;;;;;;;19.55;7.10;;;;;;;15.79;94.96;101577.69;6098331;23;20018;-50
2022/10/30 03:24:49;;;;;;;20.02;7.75;;;;;;;15.75;95.41;101583.75;6100808;23;20054;-50
2022/10/30 03:27:17;;;;;;;17.30;7.35;;;;;;;15.73;95.71;101588.72;6100215;23;20019;-50
2022/10/30 03:29:44;;;;;;;19.63;7.30;;;;;;;15.74;95.73;101581.28;6100409;23;20030;-51
2022/10/30 03:32:12;;;;;;;24.65;7.47;;;;;;;15.76;96.10;101585.38;6099422;23;20034;-50
2022/10/30 03:34:51;;;;;;;19.60;7.28;;;;;;;15.80;95.98;101584.81;6098277;23;20018;-52
2022/10/30 03:37:18;;;;;;;21.05;6.97;;;;;;;15.80;95.47;101574.63;6096398;23;20044;-50
2022/10/30 03:39:46;;;;;;;16.75;6.55;;;;;;;15.79;95.42;101577.69;6097361;23;20026;-51
2022/10/30 03:42:14;;;;;;;15.15;6.40;;;;;;;15.77;95.19;101581.53;6096353;23;20042;-50
2022/10/30 03:44:42;;;;;;;18.73;6.47;;;;;;;15.73;95.50;101580.47;6096835;23;20022;-54
2022/10/30 03:47:10;;;;;;;22.55;7.30;;;;;;;15.69;95.55;101584.03;6073120;23;20352;-53
2022/10/30 03:49:44;;;;;;;15.15;7.18;;;;;;;15.60;96.18;101592.03;6076773;23;20038;-50
2022/10/30 03:52:16;;;;;;;15.98;7.00;;;;;;;15.54;96.66;101596.75;6097294;23;20056;-51
2022/10/30 03:54:44;;;;;;;21.00;7.28;;;;;;;15.55;96.81;101600.31;6097232;23;20467;-51
2022/10/30 03:57:15;;;;;;;25.20;7.57;;;;;;;15.55;96.86;101590.13;6095746;23;20046;-57
2022/10/30 04:00:04;;;;;;;16.67;6.57;;;;;;;15.52;96.98;101589.91;6096023;23;20089;-54
2022/10/30 04:02:51;;;;;;;15.18;6.00;;;;;;;15.53;97.56;101594.28;6093892;23;20069;-55
2022/10/30 04:05:21;;;;;;;16.17;6.65;;;;;;;15.54;96.95;101598.69;6094577;23;20028;-55
2022/10/30 04:07:56;;;;;;;17.58;6.93;;;;;;;15.55;97.16;101606.63;6071328;23;20053;-55
2022/10/30 04:10:25;;;;;;;18.92;7.10;;;;;;;15.57;97.00;101603.59;6070754;23;20022;-53
2022/10/30 04:13:03;;;;;;;15.57;7.03;;;;;;;15.57;96.86;101609.09;6094827;23;20018;-54
2022/10/30 04:15:31;;;;;;;;;;;;;;;15.57;96.94;101609.09;6096624;23;20093;-52
2022/10/30 04:17:58;;;;;;;18.30;6.80;;;;;;;15.54;96.80;101606.91;6095680;23;19921;-56
2022/10/30 04:20:27;;;;;;;22.50;7.60;;;;;;;15.51;96.96;101610.22;6094297;23;20054;-50
2022/10/30 04:22:56;;;;;;;18.33;7.22;;;;;;;15.47;97.20;101606.41;6094872;23;20392;-51
2022/10/30 04:25:24;;;;;;;15.27;7.05;;;;;;;15.46;97.57;101616.53;6094018;23;20018;-52
2022/10/30 04:27:52;;;;;;;24.15;7.60;;;;;;;15.46;97.80;101604.75;6046813;23;20026;-53
2022/10/30 04:30:22;;;;;;;15.63;7.20;;;;;;;15.48;97.72;101610.78;6093708;23;20094;-54
2022/10/30 04:32:51;;;;;;;16.95;7.03;;;;;;;15.49;98.14;101607.78;6072072;23;20022;-53
2022/10/30 04:35:23;;;;;;;20.05;7.70;;;;;;;15.51;97.54;101610.22;6071727;23;20019;-52
2022/10/30 04:37:55;;;;;;;13.43;6.63;;;;;;;15.51;97.81;101599.22;6095638;23;20019;-52
2022/10/30 04:40:24;;;;;;;15.30;6.80;;;;;;;15.52;97.59;101592.66;6096852;23;20026;-55
2022/10/30 04:42:57;;;;;;;17.75;6.93;;;;;;;15.50;97.49;101597.59;6096538;23;20403;-53
2022/10/30 04:45:26;;;;;;;14.55;6.40;;;;;;;15.48;97.61;101600.63;6095896;23;20014;-51
2022/10/30 04:48:07;;;;;;;21.25;7.70;;;;;;;15.46;97.75;101602.00;6095731;23;20022;-52
2022/10/30 04:50:35;;;;;;;23.25;6.80;;;;;;;15.45;97.84;101603.13;6071352;23;20530;-51
2022/10/30 04:53:16;;;;;;;18.25;7.60;;;;;;;15.43;97.55;101597.91;6072416;23;20073;-53
2022/10/30 04:55:47;;;;;;;17.40;6.88;;;;;;;15.39;97.54;101590.50;6095298;23;20097;-50
2022/10/30 04:58:14;;;;;;;15.52;6.57;;;;;;;15.30;98.31;101588.34;6071802;23;20443;-53
2022/10/30 05:00:46;;;;;;;16.58;7.10;;;;;;;15.30;98.60;101582.84;6094759;23;20394;-52
2022/10/30 05:03:19;;;;;;;15.75;6.90;;;;;;;15.34;98.45;101578.47;6096470;23;20045;-52
2022/10/30 05:06:10;;;;;;;17.52;6.65;;;;;;;15.37;98.45;101571.56;6095720;23;20022;-52
2022/10/30 05:08:39;;;;;;;17.48;6.35;;;;;;;15.40;98.50;101554.53;6072151;23;20029;-50
2022/10/30 05:11:17;;;;;;;17.13;6.68;;;;;;;15.39;98.22;101558.34;6095113;23;20052;-56
2022/10/30 05:13:46;;;;;;;14.50;6.72;;;;;;;15.34;97.84;101566.63;6095244;23;20459;-53
2022/10/30 05:16:16;;;;;;;18.52;7.38;;;;;;;15.29;98.18;101569.41;6047924;23;20029;-51
2022/10/30 05:18:44;;;;;;;16.98;6.85;;;;;;;15.26;98.82;101570.78;6095293;23;20447;-53
2022/10/30 05:21:12;;;;;;;16.13;6.93;;;;;;;15.25;98.59;101574.66;6095541;23;20014;-54
2022/10/30 05:23:39;;;;;;;16.52;6.28;;;;;;;15.26;98.83;101570.78;6047485;23;20029;-55
2022/10/30 05:26:07;;;;;;;15.05;6.85;;;;;;;15.28;99.07;101576.00;6094775;23;20459;-52
2022/10/30 05:28:36;;;;;;;13.35;6.78;;;;;;;15.28;98.77;101576.81;6095615;23;20018;-51
2022/10/30 05:31:04;;;;;;;18.70;6.95;;;;;;;15.27;99.21;101577.94;6095634;23;20019;-54
2022/10/30 05:33:51;;;;;;;13.52;6.60;;;;;;;15.29;98.93;101581.19;6095313;23;20019;-53
2022/10/30 05:36:19;;;;;;;14.43;6.53;;;;;;;15.29;99.18;101575.72;6094682;23;20046;-53
2022/10/30 05:38:47;;;;;;;18.98;6.38;;;;;;;15.29;99.36;101569.41;6095436;23;20026;-52
2022/10/30 05:41:24;;;;;;;14.93;6.53;;;;;;;15.29;98.87;101572.16;6095487;23;20034;-52
2022/10/30 05:43:52;;;;;;;17.33;6.80;;;;;;;15.29;98.87;101580.38;6070441;23;20342;-52
2022/10/30 05:46:20;;;;;;;18.05;7.57;;;;;;;15.26;99.02;101584.50;6096305;23;20045;-52
2022/10/30 05:48:47;;;;;;;20.08;7.38;;;;;;;15.26;99.15;101597.44;6095668;23;20459;-54
2022/10/30 05:51:15;;;;;;;17.58;7.15;;;;;;;15.27;99.10;101588.91;6092584;23;20014;-52
2022/10/30 05:53:49;;;;;;;18.58;7.22;;;;;;;15.29;99.17;101589.44;6094116;23;20399;-52
2022/10/30 05:56:20;;;;;;;18.40;6.78;;;;;;;15.30;98.96;101593.03;6095561;23;20515;-52
2022/10/30 05:58:49;;;;;;;14.95;6.43;;;;;;;15.29;98.94;101586.69;6094953;23;20018;-51
2022/10/30 06:01:17;;;;;;;15.90;6.60;;;;;;;15.28;98.79;101590.56;6095121;23;20030;-53
2022/10/30 06:03:49;;;;;;;19.45;7.30;;;;;;;15.25;98.48;101590.28;6095309;23;20018;-51
2022/10/30 06:06:17;;;;;;;16.98;6.50;;;;;;;15.23;99.07;101584.28;6095187;23;20107;-52
2022/10/30 06:08:45;;;;;;;15.10;6.80;;;;;;;15.23;99.11;101587.81;6095164;23;20447;-51
2022/10/30 06:11:39;;;;;;;13.73;6.72;;;;;;;15.22;98.77;101591.66;6062972;23;20026;-53
2022/10/30 06:14:09;;;;;;;15.15;7.00;;;;;;;15.18;99.00;101579.63;6095002;23;20321;-51
2022/10/30 06:16:49;;;;;;;20.73;7.32;;;;;;;15.14;98.73;101586.75;6094887;23;20057;-53
2022/10/30 06:19:37;;;;;;;13.90;6.60;;;;;;;15.13;99.34;101582.38;6095557;23;20026;-53
2022/10/30 06:22:34;;;;;;;16.27;6.75;;;;;;;15.10;99.33;101592.00;6018549;23;20020;-51
2022/10/30 06:25:11;;;;;;;17.10;6.70;;;;;;;15.09;98.84;101593.09;6095472;23;20353;-51
2022/10/30 06:27:50;;;;;;;16.25;7.18;;;;;;;15.08;99.40;101596.09;6097259;23;20022;-52
2022/10/30 06:30:18;;;;;;;15.40;7.55;;;;;;;15.06;99.15;101598.31;6098543;23;20030;-52
2022/10/30 06:32:46;;;;;;;18.50;7.07;;;;;;;15.05;99.55;101593.91;6073124;23;20470;-53
2022/10/30 06:35:14;;;;;;;15.77;6.85;;;;;;;15.04;99.25;101584.06;6096521;23;20022;-52
2022/10/30 06:37:48;;;;;;;16.83;7.57;;;;;;;15.04;99.19;101584.06;6096023;23;20026;-52
2022/10/30 06:40:16;;;;;;;17.83;6.78;;;;;;;15.03;99.24;101585.13;6096719;23;20019;-52
2022/10/30 06:43:02;;;;;;;16.30;7.18;;;;;;;14.97;98.48;101586.28;6098174;23;20076;-56
2022/10/30 06:45:40;;;;;;;14.75;7.07;;;;;;;14.88;99.01;101575.84;6096432;23;20022;-52
2022/10/30 06:48:09;;;;;;;20.15;8.05;;;;;;;14.81;99.07;101572.56;6096470;23;20019;-51
2022/10/30 06:50:41;;;;;;;14.13;7.13;;;;;;;14.74;98.93;101571.22;6096696;23;20018;-53
2022/10/30 06:53:08;;;;;;;19.00;7.82;;;;;;;14.63;99.26;101568.50;6095233;23;20034;-50
2022/10/30 06:55:37;;;;;;;20.10;7.53;;;;;;;14.58;100.00;101570.44;6068468;23;20399;-50
2022/10/30 06:58:39;;;;;;;16.25;7.10;;;;;;;14.58;100.00;101575.94;6092482;23;20357;-49
2022/10/30 07:01:10;;;;;;;15.65;7.55;;;;;;;14.61;100.00;101578.13;6092592;23;20023;-52
2022/10/30 07:04:01;;;;;;;16.70;7.60;;;;;;;14.60;100.00;101579.19;6092528;23;20022;-50
2022/10/30 07:06:28;;;;;;;14.38;7.00;;;;;;;14.60;100.00;101581.94;6092475;23;20029;-49
2022/10/30 07:08:56;;;;;;;14.57;7.20;;;;;;;14.63;100.00;101584.16;6092689;23;20118;-47
2022/10/30 07:11:24;;;;;;;19.35;7.70;;;;;;;14.67;100.00;101575.09;6092401;23;20030;-48
2022/10/30 07:14:11;;;;;;;16.27;7.45;;;;;;;14.69;100.00;101577.53;6094264;23;20022;-50
2022/10/30 07:16:49;;;;;;;18.05;7.63;;;;;;;14.70;100.00;101568.22;6092339;23;20018;-50
2022/10/30 07:19:17;;;;;;;16.55;7.00;;;;;;;14.73;100.00;101564.09;6092219;23;20101;-51
2022/10/30 07:21:45;;;;;;;14.32;7.07;;;;;;;14.73;100.00;101564.94;6068359;23;20026;-52
2022/10/30 07:24:12;;;;;;;15.48;7.38;;;;;;;14.73;100.00;101556.69;6068509;23;20045;-50
2022/10/30 07:26:49;;;;;;;14.68;7.20;;;;;;;14.75;100.00;101565.47;6070308;23;20022;-52
2022/10/30 07:29:36;;;;;;;20.92;7.40;;;;;;;14.78;100.00;101564.91;6092441;23;20605;-50
2022/10/30 07:32:12;;;;;;;18.83;7.65;;;;;;;14.84;100.00;101565.72;6068351;23;20029;-49
2022/10/30 07:34:58;;;;;;;21.98;7.63;;;;;;;14.90;100.00;101570.09;6092323;23;20085;-50
2022/10/30 07:37:51;;;;;;;21.38;7.70;;;;;;;14.97;100.00;101578.03;6093293;23;20085;-51
2022/10/30 07:40:20;;;;;;;16.00;6.57;;;;;;;15.00;100.00;101572.81;6090677;23;20018;-50
2022/10/30 07:43:14;;;;;;;21.33;8.02;;;;;;;15.04;100.00;101567.59;6092939;23;20018;-49
2022/10/30 07:46:14;;;;;;;17.42;7.50;;;;;;;15.05;100.00;101574.72;6062880;23;20070;-51
2022/10/30 07:49:06;;;;;;;19.35;7.13;;;;;;;15.07;100.00;101575.25;6094893;23;20028;-53
2022/10/30 07:51:48;;;;;;;16.17;7.18;;;;;;;15.06;100.00;101574.44;6097244;23;20057;-51
2022/10/30 07:54:17;;;;;;;19.17;7.85;;;;;;;15.05;100.00;101580.19;6071799;23;20033;-51
2022/10/30 07:56:46;;;;;;;16.98;8.25;;;;;;;15.05;100.00;101574.72;6095689;23;20073;-50
2022/10/30 07:59:48;;;;;;;21.77;8.55;;;;;;;15.06;100.00;101571.69;6096853;23;20027;-51
2022/10/30 08:02:34;;;;;;;17.35;7.90;;;;;;;15.08;100.00;101579.63;6095982;23;20033;-51
2022/10/30 08:05:22;;;;;;;24.00;8.85;;;;;;;15.08;100.00;101580.47;6092953;23;20026;-51
2022/10/30 08:08:13;;;;;;;19.00;8.20;;;;;;;15.10;100.00;101571.94;6073896;23;20026;-46
2022/10/30 08:10:42;;;;;;;26.02;8.90;;;;;;;15.11;100.00;101577.16;6092222;23;20486;-51
2022/10/30 08:13:09;;;;;;;17.08;8.10;;;;;;;15.13;100.00;101587.88;6092557;23;20342;-50
2022/10/30 08:15:38;;;;;;;18.92;7.85;;;;;;;15.14;100.00;101575.78;6092580;23;20210;-53
2022/10/30 08:18:05;;;;;;;23.95;8.95;;;;;;;15.13;100.00;101579.63;6091783;23;20022;-51
2022/10/30 08:20:37;;;;;;;18.45;8.75;;;;;;;15.14;100.00;101584.00;6092081;23;20026;-51
2022/10/30 08:23:04;;;;;;;17.02;7.78;;;;;;;15.17;100.00;101579.88;6092482;23;20022;-48
2022/10/30 08:25:32;;;;;;;20.02;9.25;;;;;;;15.18;100.00;101573.31;6068270;23;20455;-48
2022/10/30 08:28:00;;;;;;;20.23;8.75;;;;;;;15.18;100.00;101563.16;6093708;23;20537;-48
2022/10/30 08:30:34;;;;;;;19.08;8.23;;;;;;;15.20;100.00;101560.94;6092870;23;20030;-49
2022/10/30 08:33:05;;;;;;;20.10;9.30;;;;;;;15.22;100.00;101564.19;6092634;23;20034;-51
2022/10/30 08:35:53;;;;;;;20.67;8.60;;;;;;;15.24;100.00;101556.50;6093055;23;20019;-50
2022/10/30 08:38:20;;;;;;;17.88;8.02;;;;;;;15.27;100.00;101546.88;6066893;23;20029;-55
2022/10/30 08:41:08;;;;;;;19.92;9.32;;;;;;;15.28;100.00;101554.84;6070365;23;20029;-52
2022/10/30 08:43:41;;;;;;;25.02;9.60;;;;;;;15.30;100.00;101571.88;6095162;23;20022;-51
2022/10/30 08:46:09;;;;;;;18.63;8.50;;;;;;;15.30;100.00;101563.63;6096041;23;20515;-52
2022/10/30 08:48:37;;;;;;;21.60;8.55;;;;;;;15.32;100.00;101583.41;6072112;23;20018;-51
2022/10/30 08:51:05;;;;;;;17.50;8.10;;;;;;;15.33;100.00;101581.47;6096334;23;20024;-49
2022/10/30 08:53:37;;;;;;;13.93;7.70;;;;;;;15.38;100.00;101577.88;6095508;23;20466;-52
2022/10/30 08:56:10;;;;;;;17.75;8.52;;;;;;;15.38;100.00;101561.41;6095884;23;20460;-50
2022/10/30 08:58:51;;;;;;;17.40;9.38;;;;;;;15.39;100.00;101560.28;6095799;23;20026;-51
2022/10/30 09:01:19;;;;;;;21.52;9.98;;;;;;;15.39;100.00;101565.78;6095514;23;20028;-50
2022/10/30 09:04:05;;;;;;;18.38;9.23;;;;;;;15.39;100.00;101565.78;6096848;23;20022;-49
2022/10/30 09:07:05;;;;;;;17.20;9.18;;;;;;;15.40;100.00;101572.94;6097386;23;20021;-53
2022/10/30 09:10:04;;;;;;;22.10;9.75;;;;;;;15.42;100.00;101571.56;6063156;23;20049;-49
2022/10/30 09:12:34;;;;;;;20.23;9.80;;;;;;;15.43;100.00;101575.91;6072351;23;20132;-50
2022/10/30 09:15:03;;;;;;;21.15;9.68;;;;;;;15.45;100.00;101572.91;6095554;23;20038;-51
2022/10/30 09:17:41;;;;;;;17.98;8.68;;;;;;;15.46;100.00;101569.84;6074003;23;20097;-47
2022/10/30 09:20:09;;;;;;;22.25;9.70;;;;;;;15.49;100.00;101568.47;6095636;23;20033;-50
2022/10/30 09:22:42;;;;;;;16.90;8.73;;;;;;;15.51;100.00;101566.25;6071867;23;20098;-53
2022/10/30 09:25:11;;;;;;;21.10;9.52;;;;;;;15.52;100.00;101562.44;6094825;23;20029;-50
2022/10/30 09:27:59;;;;;;;22.00;10.25;;;;;;;15.52;100.00;101560.50;6080357;23;20050;-51
2022/10/30 09:30:41;;;;;;;23.08;9.90;;;;;;;15.54;100.00;101558.28;6095610;23;20050;-51
2022/10/30 09:33:12;;;;;;;19.20;9.48;;;;;;;15.58;100.00;101543.97;6095672;23;20022;-48
2022/10/30 09:36:01;;;;;;;17.63;9.45;;;;;;;15.62;100.00;101545.88;6032469;23;20069;-50
2022/10/30 09:38:29;;;;;;;19.75;9.80;;;;;;;15.64;100.00;101546.44;6071882;23;20511;-51
2022/10/30 09:41:10;;;;;;;24.40;10.40;;;;;;;15.68;100.00;101547.50;6095839;23;20022;-52
2022/10/30 09:43:52;;;;;;;22.15;9.20;;;;;;;15.71;100.00;101549.72;6096838;23;20023;-51
2022/10/30 09:46:35;;;;;;;20.75;9.77;;;;;;;15.76;100.00;101549.66;6098950;23;20027;-52
2022/10/30 09:49:23;;;;;;;23.33;10.23;;;;;;;15.81;100.00;101548.81;6096715;23;20026;-51
2022/10/30 09:52:21;;;;;;;19.63;9.50;;;;;;;15.85;100.00;101555.41;6071741;23;20018;-52
2022/10/30 09:55:28;;;;;;;19.13;9.70;;;;;;;15.89;100.00;101567.44;6072251;23;20022;-49
2022/10/30 09:58:04;;;;;;;21.75;10.40;;;;;;;15.94;100.00;101563.84;6071697;23;20029;-50
2022/10/30 10:00:37;;;;;;;20.10;10.68;;;;;;;15.96;100.00;101561.63;6096815;23;20081;-51
2022/10/30 10:03:22;;;;;;;24.20;10.45;;;;;;;16.00;100.00;101576.44;6075418;23;20096;-49
2022/10/30 10:06:17;;;;;;;26.00;10.68;;;;;;;16.06;100.00;101577.22;6087669;23;20023;-52
2022/10/30 10:09:15;;;;;;;23.08;10.23;;;;;;;16.08;100.00;101584.06;6077717;23;20053;-48
2022/10/30 10:12:32;;;;;;;18.90;10.05;;;;;;;16.10;100.00;101584.59;6096915;23;20078;-52
2022/10/30 10:15:03;;;;;;;22.75;10.18;;;;;;;16.13;100.00;101588.72;6073400;23;20074;-54
2022/10/30 10:17:35;;;;;;;26.70;10.45;;;;;;;16.13;100.00;101583.22;6097175;23;20022;-48
2022/10/30 10:20:04;;;;;;;22.33;10.48;;;;;;;16.15;100.00;101581.00;6097450;23;20025;-49
2022/10/30 10:22:47;;;;;;;18.77;9.85;;;;;;;16.15;100.00;101581.81;6096752;23;20026;-51
2022/10/30 10:25:18;;;;;;;20.92;11.00;;;;;;;16.16;100.00;101582.63;6096741;23;20053;-51
2022/10/30 10:28:07;;;;;;;21.73;9.10;;;;;;;16.19;100.00;101582.06;6098918;23;20026;-52
2022/10/30 10:30:44;;;;;;;20.55;9.73;;;;;;;16.22;100.00;101569.69;6096968;23;20022;-54
2022/10/30 10:33:35;;;;;;;23.77;10.27;;;;;;;16.24;100.00;101572.97;6072937;23;20022;-51
2022/10/30 10:36:26;;;;;;;26.40;11.15;;;;;;;16.25;100.00;101558.09;6058080;23;20015;-54
2022/10/30 10:39:23;;;;;;;18.50;10.18;;;;;;;16.29;100.00;101564.66;6072956;23;20380;-52
2022/10/30 10:42:28;;;;;;;17.98;10.20;;;;;;;16.32;100.00;101567.66;6096814;23;20391;-53
2022/10/30 10:45:14;;;;;;;19.05;9.68;;;;;;;16.35;100.00;101566.25;6072684;23;20078;-53
2022/10/30 10:48:19;;;;;;;20.42;8.43;;;;;;;16.38;100.00;101562.94;6098682;23;20029;-49
2022/10/30 10:50:47;;;;;;;;;;;;;;;16.40;100.00;101566.19;6097381;23;20022;-48
2022/10/30 10:53:21;;;;;;;19.88;9.45;;;;;;;16.40;100.00;101555.19;6096929;23;20290;-51
2022/10/30 10:55:51;;;;;;;23.75;10.18;;;;;;;16.42;100.00;101558.50;6073197;23;20034;-51
2022/10/30 10:58:44;;;;;;;25.73;10.60;;;;;;;16.43;100.00;101551.88;6098165;23;20030;-50
2022/10/30 11:01:18;;;;;;;27.42;9.77;;;;;;;16.47;100.00;101561.19;6098005;23;20502;-49
2022/10/30 11:04:17;;;;;;;24.73;10.10;;;;;;;16.48;100.00;101557.34;6097014;23;20029;-54
2022/10/30 11:06:51;;;;;;;22.40;10.38;;;;;;;16.52;100.00;101557.56;6083534;23;20451;-49
2022/10/30 11:09:21;;;;;;;18.88;10.38;;;;;;;16.54;100.00;101556.16;6096792;23;20058;-55
2022/10/30 11:11:50;;;;;;;17.63;9.77;;;;;;;16.56;100.00;101553.13;6097412;23;20018;-52
2022/10/30 11:14:21;;;;;;;20.52;9.75;;;;;;;16.58;100.00;101557.22;6096917;23;20022;-53
2022/10/30 11:17:12;;;;;;;20.88;9.95;;;;;;;16.60;100.00;101565.22;6097963;23;20050;-51
2022/10/30 11:19:39;;;;;;;23.73;10.65;;;;;;;16.62;100.00;101554.75;6048597;23;20026;-51
2022/10/30 11:22:36;;;;;;;26.98;10.77;;;;;;;16.67;100.00;101551.09;6098100;23;20018;-50
2022/10/30 11:25:39;;;;;;;21.67;11.00;;;;;;;16.71;100.00;101552.16;6095363;23;20030;-50
2022/10/30 11:28:12;;;;;;;26.90;11.07;;;;;;;16.72;100.00;101542.81;6009289;23;20028;-50
2022/10/30 11:30:40;;;;;;;20.20;10.90;;;;;;;16.76;100.00;101536.41;6060227;23;20325;-51
2022/10/30 11:33:21;;;;;;;23.08;11.13;;;;;;;16.79;100.00;101527.59;6096421;23;20313;-53
2022/10/30 11:35:49;;;;;;;23.30;10.85;;;;;;;16.84;100.00;101521.22;6096665;23;20317;-51
2022/10/30 11:38:20;;;;;;;26.77;11.57;;;;;;;16.86;100.00;101521.75;6097796;23;20502;-51
2022/10/30 11:40:50;;;;;;;25.67;11.10;;;;;;;16.89;99.93;101523.91;6097671;23;20022;-50
2022/10/30 11:43:21;;;;;;;21.45;10.30;;;;;;;16.90;99.64;101520.03;6095744;23;20522;-51
2022/10/30 11:45:49;;;;;;;22.60;10.88;;;;;;;16.93;99.53;101522.22;6098185;23;20041;-49
2022/10/30 11:48:28;;;;;;;25.75;9.95;;;;;;;16.97;99.33;101525.19;6097702;23;20030;-50
2022/10/30 11:51:01;;;;;;;23.60;10.82;;;;;;;16.99;99.41;101523.78;6072128;23;20026;-49